createdAt,value
2022-07-27T00:01:51.026Z,11.70
2022-07-27T00:04:19.127Z,11.80
2022-07-27T00:06:46.709Z,11.70
2022-07-27T00:09:13.895Z,11.60
2022-07-27T00:11:41.115Z,11.60
2022-07-27T00:14:07.941Z,11.50
2022-07-27T00:16:34.808Z,11.50
2022-07-27T00:19:01.654Z,11.40
2022-07-27T00:21:28.483Z,11.40
2022-07-27T00:23:55.834Z,11.30
2022-07-27T00:26:22.839Z,11.40
2022-07-27T00:28:50.322Z,11.40
2022-07-27T00:31:17.836Z,11.50
2022-07-27T00:33:44.709Z,11.40
2022-07-27T00:36:11.649Z,11.30
2022-07-27T00:38:38.541Z,11.30
2022-07-27T00:41:05.795Z,11.30
2022-07-27T00:43:32.625Z,11.20
2022-07-27T00:45:59.727Z,11.30
2022-07-27T00:48:31.489Z,11.20
2022-07-27T00:50:58.583Z,11.20
2022-07-27T00:53:25.345Z,11.10
2022-07-27T00:55:52.191Z,11.10
2022-07-27T00:58:19.143Z,11.10
2022-07-27T01:00:46.156Z,11.10
2022-07-27T01:03:13.148Z,11.10
2022-07-27T01:05:43.992Z,11.00
2022-07-27T01:08:12.978Z,11.00
2022-07-27T01:10:40.787Z,10.90
2022-07-27T01:13:12.477Z,11.00
2022-07-27T01:15:41.504Z,10.90
2022-07-27T01:18:13.241Z,11.00
2022-07-27T01:20:41.562Z,11.10
2022-07-27T01:23:09.281Z,11.10
2022-07-27T01:25:36.056Z,11.20
2022-07-27T01:28:02.831Z,11.10
2022-07-27T01:30:29.644Z,11.00
2022-07-27T01:33:03.818Z,11.10
2022-07-27T01:35:31.478Z,11.20
2022-07-27T01:37:58.573Z,11.00
2022-07-27T01:40:25.810Z,11.10
2022-07-27T01:42:53.006Z,11.00
2022-07-27T01:45:20.144Z,11.00
2022-07-27T01:47:47.171Z,11.10
2022-07-27T01:50:14.554Z,11.10
2022-07-27T01:52:41.400Z,11.10
2022-07-27T01:55:09.799Z,11.20
2022-07-27T01:57:37.992Z,11.20
2022-07-27T02:00:11.030Z,11.30
2022-07-27T02:02:38.679Z,11.40
2022-07-27T02:05:06.881Z,11.40
2022-07-27T02:07:33.726Z,11.40
2022-07-27T02:10:00.480Z,11.50
2022-07-27T02:12:27.268Z,11.60
2022-07-27T02:14:54.797Z,11.60
2022-07-27T02:17:22.356Z,11.60
2022-07-27T02:19:49.255Z,11.60
2022-07-27T02:22:16.021Z,11.60
2022-07-27T02:24:42.853Z,11.70
2022-07-27T02:27:09.638Z,11.70
2022-07-27T02:29:36.399Z,11.80
2022-07-27T02:32:03.258Z,11.80
2022-07-27T02:34:30.024Z,12.00
2022-07-27T02:36:56.810Z,11.90
2022-07-27T02:39:23.560Z,11.90
2022-07-27T02:41:50.357Z,12.00
2022-07-27T02:44:17.128Z,12.10
2022-07-27T02:46:44.466Z,12.20
2022-07-27T02:49:11.544Z,12.20
2022-07-27T02:51:39.571Z,12.10
2022-07-27T02:54:07.892Z,12.20
2022-07-27T02:56:34.673Z,12.20
2022-07-27T02:59:01.457Z,12.30
2022-07-27T03:01:28.288Z,12.30
2022-07-27T03:03:55.177Z,12.30
2022-07-27T03:06:21.989Z,12.20
2022-07-27T03:08:48.760Z,12.20
2022-07-27T03:11:16.168Z,12.30
2022-07-27T03:13:42.987Z,12.40
2022-07-27T03:16:09.843Z,12.30
2022-07-27T03:18:36.665Z,12.40
2022-07-27T03:21:03.461Z,12.30
2022-07-27T03:23:30.201Z,12.40
2022-07-27T03:25:56.994Z,12.40
2022-07-27T03:28:23.781Z,12.40
2022-07-27T03:30:50.654Z,12.30
2022-07-27T03:33:17.456Z,12.40
2022-07-27T03:35:44.560Z,12.30
2022-07-27T03:38:11.541Z,12.30
2022-07-27T03:40:38.566Z,12.40
2022-07-27T03:43:05.338Z,12.20
2022-07-27T03:45:32.146Z,12.20
2022-07-27T03:47:58.932Z,12.20
2022-07-27T03:50:25.699Z,12.20
2022-07-27T03:52:52.777Z,12.30
2022-07-27T03:55:20.878Z,12.30
2022-07-27T03:57:47.713Z,12.30
2022-07-27T04:00:14.863Z,12.50
2022-07-27T04:02:42.693Z,12.40
2022-07-27T04:05:09.986Z,12.50
2022-07-27T04:07:36.921Z,12.50
2022-07-27T04:10:04.571Z,12.60
2022-07-27T04:12:31.810Z,12.60
2022-07-27T04:14:58.766Z,12.60
2022-07-27T04:17:54.310Z,12.70
2022-07-27T04:20:12.532Z,12.70
2022-07-27T04:22:39.773Z,12.70
2022-07-27T04:25:06.992Z,12.70
2022-07-27T04:27:33.762Z,12.80
2022-07-27T04:30:00.527Z,12.80
2022-07-27T04:32:27.351Z,12.80
2022-07-27T04:34:54.106Z,12.80
2022-07-27T04:37:20.884Z,12.90
2022-07-27T04:39:47.796Z,12.90
2022-07-27T04:42:14.665Z,13.00
2022-07-27T04:44:41.457Z,13.10
2022-07-27T04:47:08.228Z,13.10
2022-07-27T04:49:35.036Z,13.10
2022-07-27T04:52:01.818Z,13.20
2022-07-27T04:54:28.595Z,13.30
2022-07-27T04:56:55.397Z,13.40
2022-07-27T04:59:22.199Z,13.40
2022-07-27T05:01:49.138Z,13.40
2022-07-27T05:04:15.971Z,13.60
2022-07-27T05:06:42.787Z,13.70
2022-07-27T05:09:09.854Z,13.70
2022-07-27T05:11:36.902Z,13.80
2022-07-27T05:14:03.775Z,14.10
2022-07-27T05:16:30.709Z,14.30
2022-07-27T05:18:57.709Z,14.30
2022-07-27T05:21:25.084Z,14.10
2022-07-27T05:23:51.858Z,14.20
2022-07-27T05:26:18.631Z,14.20
2022-07-27T05:28:45.367Z,14.10
2022-07-27T05:31:12.120Z,14.10
2022-07-27T05:33:38.884Z,14.00
2022-07-27T05:36:07.666Z,14.20
2022-07-27T05:38:40.482Z,14.20
2022-07-27T05:41:07.986Z,14.40
2022-07-27T05:43:35.183Z,14.40
2022-07-27T05:46:02.034Z,14.50
2022-07-27T05:48:28.927Z,14.60
2022-07-27T05:50:55.726Z,14.70
2022-07-27T05:53:22.543Z,14.80
2022-07-27T05:55:58.761Z,14.90
2022-07-27T05:58:30.639Z,15.10
2022-07-27T06:00:57.546Z,15.00
2022-07-27T06:03:24.565Z,15.00
2022-07-27T06:05:51.522Z,15.00
2022-07-27T06:08:18.511Z,15.10
2022-07-27T06:10:45.317Z,15.20
2022-07-27T06:13:12.124Z,14.90
2022-07-27T06:15:39.270Z,14.90
2022-07-27T06:18:06.360Z,14.90
2022-07-27T06:20:33.145Z,15.10
2022-07-27T06:23:00.653Z,15.00
2022-07-27T06:25:34.372Z,15.10
2022-07-27T06:28:03.152Z,14.90
2022-07-27T06:30:30.012Z,15.10
2022-07-27T06:32:58.067Z,15.10
2022-07-27T06:35:26.457Z,15.30
2022-07-27T06:37:53.898Z,15.40
2022-07-27T06:40:21.210Z,15.30
2022-07-27T06:42:48.597Z,15.40
2022-07-27T06:45:15.589Z,15.50
2022-07-27T06:47:49.630Z,15.30
2022-07-27T06:50:17.939Z,15.60
2022-07-27T06:52:44.759Z,15.80
2022-07-27T06:55:11.625Z,15.80
2022-07-27T06:57:38.527Z,16.10
2022-07-27T07:00:06.683Z,16.20
2022-07-27T07:02:33.541Z,15.80
2022-07-27T07:05:00.384Z,16.00
2022-07-27T07:07:27.175Z,15.80
2022-07-27T07:09:54.001Z,16.10
2022-07-27T07:12:20.780Z,15.90
2022-07-27T07:14:47.571Z,16.10
2022-07-27T07:17:14.335Z,15.80
2022-07-27T07:19:41.148Z,15.90
2022-07-27T07:22:07.944Z,16.10
2022-07-27T07:24:34.734Z,16.40
2022-07-27T07:27:01.539Z,16.60
2022-07-27T07:29:28.331Z,16.70
2022-07-27T07:31:55.178Z,16.50
2022-07-27T07:34:21.964Z,16.60
2022-07-27T07:36:48.792Z,16.50
2022-07-27T07:39:15.951Z,16.50
2022-07-27T07:41:42.940Z,16.70
2022-07-27T07:44:09.725Z,16.90
2022-07-27T07:46:36.677Z,16.70
2022-07-27T07:49:04.668Z,16.60
2022-07-27T07:51:31.629Z,16.60
2022-07-27T07:53:58.677Z,17.30
2022-07-27T07:56:25.447Z,17.00
2022-07-27T07:58:52.214Z,17.40
2022-07-27T08:01:19.105Z,17.50
2022-07-27T08:03:50.626Z,17.20
2022-07-27T08:06:17.575Z,17.50
2022-07-27T08:08:44.351Z,16.90
2022-07-27T08:11:11.190Z,17.00
2022-07-27T08:13:37.955Z,17.00
2022-07-27T08:16:05.147Z,16.70
2022-07-27T08:18:32.031Z,16.70
2022-07-27T08:20:58.826Z,16.70
2022-07-27T08:23:25.650Z,16.40
2022-07-27T08:25:52.689Z,16.40
2022-07-27T08:28:19.479Z,16.60
2022-07-27T08:30:47.572Z,16.60
2022-07-27T08:33:16.956Z,16.60
2022-07-27T08:35:45.247Z,16.70
2022-07-27T08:38:12.144Z,16.80
2022-07-27T08:40:42.651Z,16.80
2022-07-27T08:43:13.178Z,16.70
2022-07-27T08:45:40.360Z,16.50
2022-07-27T08:48:07.274Z,16.90
2022-07-27T08:50:34.316Z,17.30
2022-07-27T08:53:08.029Z,17.60
2022-07-27T08:55:43.619Z,17.10
2022-07-27T08:58:12.062Z,16.80
2022-07-27T09:00:43.818Z,16.70
2022-07-27T09:03:19.180Z,16.80
2022-07-27T09:05:50.436Z,16.70
2022-07-27T09:08:30.504Z,16.90
2022-07-27T09:10:58.455Z,17.10
2022-07-27T09:13:32.820Z,17.40
2022-07-27T09:16:19.307Z,17.70
2022-07-27T09:18:47.662Z,17.90
2022-07-27T09:21:16.640Z,17.70
2022-07-27T09:23:49.610Z,18.00
2022-07-27T09:26:30.587Z,18.40
2022-07-27T09:29:13.934Z,18.60
2022-07-27T09:31:50.016Z,20.60
2022-07-27T09:34:33.265Z,19.20
2022-07-27T09:37:00.765Z,19.10
2022-07-27T09:39:32.352Z,19.30
2022-07-27T09:42:01.172Z,18.90
2022-07-27T09:44:43.566Z,18.70
2022-07-27T09:47:21.368Z,18.80
2022-07-27T09:49:48.164Z,18.90
2022-07-27T09:52:29.590Z,19.00
2022-07-27T09:55:04.253Z,18.10
2022-07-27T09:57:31.231Z,18.00
2022-07-27T10:00:16.390Z,18.00
2022-07-27T10:02:43.911Z,17.70
2022-07-27T10:05:11.402Z,18.10
2022-07-27T10:07:39.881Z,18.50
2022-07-27T10:10:07.280Z,18.20
2022-07-27T10:12:34.070Z,18.10
2022-07-27T10:15:00.822Z,18.70
2022-07-27T10:17:28.425Z,18.70
2022-07-27T10:19:56.727Z,18.80
2022-07-27T10:22:49.167Z,19.30
2022-07-27T10:25:16.292Z,19.40
2022-07-27T10:27:47.086Z,19.60
2022-07-27T10:30:16.275Z,19.40
2022-07-27T10:32:51.100Z,19.40
2022-07-27T10:35:36.894Z,20.50
2022-07-27T10:38:09.150Z,19.90
2022-07-27T10:40:36.021Z,19.70
2022-07-27T10:43:17.469Z,19.50
2022-07-27T10:45:50.701Z,19.40
2022-07-27T10:48:44.236Z,18.80
2022-07-27T10:51:16.367Z,18.60
2022-07-27T10:54:10.841Z,18.80
2022-07-27T10:56:46.180Z,19.00
2022-07-27T10:59:12.973Z,19.70
2022-07-27T11:01:56.938Z,20.30
2022-07-27T11:04:24.365Z,21.40
2022-07-27T11:10:03.639Z,20.90
2022-07-27T11:12:31.114Z,21.10
2022-07-27T11:14:59.017Z,20.80
2022-07-27T11:20:15.075Z,20.60
2022-07-27T11:25:28.973Z,20.30
2022-07-27T11:27:55.906Z,20.50
2022-07-27T11:30:28.705Z,20.80
2022-07-27T11:32:56.467Z,19.90
2022-07-27T11:35:24.784Z,19.80
2022-07-27T11:38:01.874Z,19.60
2022-07-27T11:40:56.236Z,19.60
2022-07-27T11:43:38.760Z,20.10
2022-07-27T11:46:15.317Z,20.60
2022-07-27T11:49:17.523Z,21.00
2022-07-27T11:51:46.765Z,20.60
2022-07-27T11:54:25.284Z,20.70
2022-07-27T11:56:58.338Z,20.60
2022-07-27T11:59:35.769Z,20.70
2022-07-27T12:02:08.183Z,20.60
2022-07-27T12:04:37.026Z,21.60
2022-07-27T12:07:05.833Z,21.80
2022-07-27T12:09:38.418Z,21.40
2022-07-27T12:12:28.678Z,21.20
2022-07-27T12:14:57.103Z,20.60
2022-07-27T12:17:32.062Z,20.70
2022-07-27T12:20:01.848Z,21.10
2022-07-27T12:22:29.981Z,20.80
2022-07-27T12:24:58.432Z,21.40
2022-07-27T12:27:25.666Z,21.50
2022-07-27T12:30:14.041Z,21.40
2022-07-27T12:32:43.957Z,21.40
2022-07-27T12:35:22.431Z,21.70
2022-07-27T12:37:57.706Z,21.10
2022-07-27T12:40:24.658Z,21.10
2022-07-27T12:43:03.011Z,21.30
2022-07-27T12:45:36.444Z,21.50
2022-07-27T12:48:17.445Z,20.90
2022-07-27T12:50:46.648Z,20.30
2022-07-27T12:53:15.429Z,20.10
2022-07-27T12:55:43.774Z,20.40
2022-07-27T12:58:11.868Z,20.40
2022-07-27T13:00:38.641Z,20.40
2022-07-27T13:03:06.410Z,20.50
2022-07-27T13:05:34.919Z,20.70
2022-07-27T13:08:02.929Z,21.50
2022-07-27T13:10:29.889Z,22.10
2022-07-27T13:12:56.883Z,22.20
2022-07-27T13:15:23.745Z,21.90
2022-07-27T13:17:50.545Z,21.60
2022-07-27T13:20:18.596Z,21.70
2022-07-27T13:22:46.449Z,22.20
2022-07-27T13:25:15.255Z,22.20
2022-07-27T13:27:44.679Z,21.80
2022-07-27T13:30:12.506Z,22.40
2022-07-27T13:32:39.811Z,22.50
2022-07-27T13:35:09.118Z,22.80
2022-07-27T13:37:36.206Z,22.90
2022-07-27T13:40:03.500Z,22.50
2022-07-27T13:42:30.342Z,22.40
2022-07-27T13:45:07.792Z,22.40
2022-07-27T13:47:36.873Z,22.70
2022-07-27T13:50:04.713Z,22.40
2022-07-27T13:52:31.485Z,22.50
2022-07-27T13:54:58.306Z,22.50
2022-07-27T13:57:25.071Z,22.90
2022-07-27T13:59:51.901Z,22.40
2022-07-27T14:02:22.862Z,22.20
2022-07-27T14:04:50.702Z,21.60
2022-07-27T14:10:04.675Z,21.90
2022-07-27T14:12:31.456Z,22.60
2022-07-27T14:14:58.254Z,21.70
2022-07-27T14:17:25.043Z,21.30
2022-07-27T14:19:51.828Z,21.00
2022-07-27T14:22:18.672Z,21.30
2022-07-27T14:24:45.480Z,21.70
2022-07-27T14:27:12.248Z,21.70
2022-07-27T14:29:39.084Z,21.10
2022-07-27T14:32:06.257Z,21.30
2022-07-27T14:34:33.232Z,21.60
2022-07-27T14:37:00.065Z,20.80
2022-07-27T14:39:26.905Z,20.50
2022-07-27T14:41:53.800Z,21.40
2022-07-27T14:44:20.625Z,21.10
2022-07-27T14:46:47.551Z,21.50
2022-07-27T14:49:14.848Z,22.30
2022-07-27T14:51:41.842Z,22.90
2022-07-27T14:54:08.738Z,22.30
2022-07-27T14:56:35.563Z,22.50
2022-07-27T14:59:02.382Z,22.50
2022-07-27T15:01:29.476Z,22.30
2022-07-27T15:03:56.330Z,22.50
2022-07-27T15:06:23.623Z,23.20
2022-07-27T15:08:50.438Z,22.70
2022-07-27T15:11:17.220Z,22.60
2022-07-27T15:13:44.044Z,21.80
2022-07-27T15:16:10.901Z,21.50
2022-07-27T15:18:38.816Z,21.00
2022-07-27T15:21:13.528Z,21.30
2022-07-27T15:23:42.882Z,21.60
2022-07-27T15:26:09.745Z,21.60
2022-07-27T15:28:36.579Z,21.60
2022-07-27T15:32:50.836Z,21.40
2022-07-27T15:35:17.660Z,21.20
2022-07-27T15:37:53.560Z,21.40
2022-07-27T15:40:22.298Z,21.60
2022-07-27T15:42:49.118Z,22.00
2022-07-27T15:46:42.381Z,21.40
2022-07-27T15:49:09.284Z,21.20
2022-07-27T15:51:36.110Z,21.90
2022-07-27T15:54:02.970Z,21.30
2022-07-27T15:56:29.880Z,21.30
2022-07-27T15:58:56.710Z,21.10
2022-07-27T16:01:23.828Z,21.10
2022-07-27T16:04:03.111Z,21.00
2022-07-27T16:06:32.910Z,21.10
2022-07-27T16:09:02.805Z,21.20
2022-07-27T16:11:29.623Z,21.10
2022-07-27T16:13:56.435Z,22.10
2022-07-27T16:16:23.277Z,23.40
2022-07-27T16:38:49.653Z,23.50
2022-07-27T16:41:17.108Z,23.00
2022-07-27T16:46:30.640Z,20.70
2022-07-27T16:48:57.521Z,20.60
2022-07-27T16:51:24.307Z,20.70
2022-07-27T16:53:51.086Z,23.20
2022-07-27T16:56:18.186Z,24.20
2022-07-27T16:58:45.020Z,24.70
2022-07-27T17:01:15.086Z,24.40
2022-07-27T17:03:49.399Z,23.90
2022-07-27T17:06:16.943Z,22.90
2022-07-27T17:08:43.809Z,22.00
2022-07-27T17:11:11.100Z,23.00
2022-07-27T17:13:38.399Z,24.00
2022-07-27T17:16:13.115Z,25.50
2022-07-27T17:18:40.721Z,27.50
2022-07-27T17:21:08.548Z,25.40
2022-07-27T17:23:35.459Z,26.10
2022-07-27T17:26:02.253Z,25.00
2022-07-27T17:28:29.080Z,24.70
2022-07-27T17:30:55.894Z,23.80
2022-07-27T17:33:22.658Z,25.20
2022-07-27T17:35:52.307Z,25.50
2022-07-27T17:38:19.106Z,27.50
2022-07-27T17:40:45.978Z,27.90
2022-07-27T17:43:12.777Z,27.00
2022-07-27T17:45:39.660Z,26.60
2022-07-27T17:48:06.811Z,26.80
2022-07-27T17:50:34.604Z,27.00
2022-07-27T17:53:01.365Z,27.30
2022-07-27T17:55:28.548Z,26.70
2022-07-27T17:57:55.697Z,25.80
2022-07-27T18:00:22.546Z,24.20
2022-07-27T18:02:49.339Z,23.90
2022-07-27T18:05:16.088Z,23.00
2022-07-27T18:07:42.904Z,22.20
2022-07-27T18:10:09.878Z,21.30
2022-07-27T18:12:36.645Z,20.90
2022-07-27T18:15:03.697Z,21.90
2022-07-27T18:17:30.467Z,21.70
2022-07-27T18:19:57.234Z,22.50
2022-07-27T18:22:24.472Z,21.90
2022-07-27T18:24:51.235Z,21.20
2022-07-27T18:27:18.180Z,20.40
2022-07-27T18:29:45.014Z,20.10
2022-07-27T18:32:11.781Z,19.70
2022-07-27T18:34:38.560Z,19.50
2022-07-27T18:37:05.369Z,19.10
2022-07-27T18:39:33.684Z,19.00
2022-07-27T18:42:01.025Z,18.70
2022-07-27T18:44:27.827Z,18.60
2022-07-27T18:46:55.154Z,18.40
2022-07-27T18:49:21.982Z,18.30
2022-07-27T18:51:48.789Z,18.00
2022-07-27T18:54:15.556Z,18.00
2022-07-27T18:56:42.347Z,17.80
2022-07-27T18:59:09.210Z,17.70
2022-07-27T19:01:36.136Z,17.60
2022-07-27T19:04:02.973Z,17.50
2022-07-27T19:06:30.175Z,17.50
2022-07-27T19:08:57.403Z,17.40
2022-07-27T19:11:24.237Z,17.30
2022-07-27T19:13:51.011Z,17.20
2022-07-27T19:16:17.780Z,17.10
2022-07-27T19:18:44.579Z,16.90
2022-07-27T19:21:11.352Z,16.80
2022-07-27T19:23:38.120Z,16.80
2022-07-27T19:28:51.579Z,16.50
2022-07-27T19:31:22.722Z,16.50
2022-07-27T19:33:51.442Z,16.40
2022-07-27T19:36:18.893Z,16.30
2022-07-27T19:41:32.525Z,16.10
2022-07-27T19:46:46.055Z,15.90
2022-07-27T19:49:14.383Z,15.90
2022-07-27T19:51:41.583Z,15.80
2022-07-27T19:54:08.383Z,15.80
2022-07-27T19:56:37.400Z,15.80
2022-07-27T19:59:04.405Z,15.70
2022-07-27T20:01:31.324Z,15.60
2022-07-27T20:03:58.291Z,15.60
2022-07-27T20:09:12.533Z,15.50
2022-07-27T20:14:26.301Z,15.30
2022-07-27T20:19:39.872Z,15.20
2022-07-27T20:24:53.465Z,15.10
2022-07-27T20:30:09.857Z,15.00
2022-07-27T20:35:23.498Z,14.80
2022-07-27T20:38:02.137Z,14.80
2022-07-27T20:40:28.917Z,14.80
2022-07-27T20:42:55.680Z,14.70
2022-07-27T20:45:22.456Z,14.60
2022-07-27T20:47:49.234Z,14.50
2022-07-27T20:50:16.067Z,14.50
2022-07-27T20:52:43.417Z,14.40
2022-07-27T20:55:11.054Z,14.40
2022-07-27T20:57:38.162Z,14.40
2022-07-27T21:00:06.546Z,14.20
2022-07-27T21:02:33.668Z,14.00
2022-07-27T21:05:00.652Z,14.00
2022-07-27T21:07:27.478Z,13.90
2022-07-27T21:09:54.291Z,13.80
2022-07-27T21:12:21.090Z,13.70
2022-07-27T21:14:47.870Z,13.60
2022-07-27T21:17:14.659Z,13.40
2022-07-27T21:19:41.575Z,13.30
2022-07-27T21:24:55.093Z,13.10
2022-07-27T21:27:22.647Z,13.10
2022-07-27T21:29:49.764Z,12.90
2022-07-27T21:32:17.515Z,12.80
2022-07-27T21:34:44.346Z,12.80
2022-07-27T21:37:11.208Z,12.70
2022-07-27T21:39:38.033Z,12.60
2022-07-27T21:42:04.877Z,12.50
2022-07-27T21:44:31.670Z,12.50
2022-07-27T21:46:58.502Z,12.40
2022-07-27T21:49:32.403Z,12.30
2022-07-27T21:52:01.529Z,12.20
2022-07-27T21:54:28.292Z,12.10
2022-07-27T21:56:55.046Z,12.00
2022-07-27T21:59:21.806Z,12.00
2022-07-27T22:01:48.569Z,11.90
2022-07-27T22:04:15.739Z,11.80
2022-07-27T22:06:42.820Z,11.80
2022-07-27T22:09:09.598Z,11.80
2022-07-27T22:11:36.328Z,11.60
2022-07-27T22:16:49.869Z,11.50
2022-07-27T22:22:03.525Z,11.40
2022-07-27T22:27:17.038Z,11.30
2022-07-27T22:29:43.836Z,11.20
2022-07-27T22:32:10.688Z,11.10
2022-07-27T22:37:24.231Z,11.10
2022-07-27T22:42:37.812Z,11.10
2022-07-27T22:47:52.308Z,11.00
2022-07-27T22:50:19.334Z,10.90
2022-07-27T22:52:46.682Z,10.90
2022-07-27T22:55:13.470Z,10.90
2022-07-27T23:00:26.950Z,10.80
2022-07-27T23:02:53.723Z,10.80
2022-07-27T23:05:21.357Z,10.80
2022-07-27T23:07:48.230Z,10.70
2022-07-27T23:10:15.071Z,10.60
2022-07-27T23:12:41.848Z,10.70
2022-07-27T23:15:08.915Z,10.60
2022-07-27T23:17:35.710Z,10.60
2022-07-27T23:20:02.504Z,10.50
2022-07-27T23:22:29.272Z,10.50
2022-07-27T23:24:56.019Z,10.40
2022-07-27T23:27:23.318Z,10.40
2022-07-27T23:29:50.086Z,10.40
2022-07-27T23:32:16.841Z,10.30
2022-07-27T23:34:43.622Z,10.30
2022-07-27T23:37:10.396Z,10.30
2022-07-27T23:39:37.188Z,10.20
2022-07-27T23:42:04.219Z,10.20
2022-07-27T23:44:30.987Z,10.20
2022-07-27T23:46:57.839Z,10.10
2022-07-27T23:49:24.746Z,10.10
2022-07-27T23:51:51.529Z,10.00
2022-07-27T23:54:18.330Z,10.00
2022-07-27T23:56:45.112Z,10.00
2022-07-27T23:59:11.875Z,9.90
